createdAt,value
2018-07-21T00:09:36.082Z,58.4
2018-07-21T00:19:35.319Z,58.4
2018-07-21T00:29:34.555Z,58.4
2018-07-21T00:39:33.792Z,58.4
2018-07-21T00:49:33.030Z,58.4
2018-07-21T00:59:32.267Z,58.4
2018-07-21T01:09:31.504Z,58.3
2018-07-21T01:19:30.743Z,58.3
2018-07-21T01:29:29.980Z,58.3
2018-07-21T01:39:29.219Z,58.3
2018-07-21T01:49:28.455Z,58.3
2018-07-21T01:59:27.694Z,58.2
2018-07-21T02:09:26.929Z,58.2
2018-07-21T02:19:26.166Z,58.1
2018-07-21T02:29:25.404Z,58.1
2018-07-21T02:39:24.643Z,58.1
2018-07-21T02:49:23.876Z,58.1
2018-07-21T02:59:23.127Z,58.1
2018-07-21T03:09:22.350Z,58.1
2018-07-21T03:19:21.587Z,58.1
2018-07-21T03:29:20.826Z,58
2018-07-21T03:39:20.065Z,58
2018-07-21T03:49:19.296Z,57.9
2018-07-21T03:59:18.582Z,57.9
2018-07-21T04:09:17.772Z,57.9
2018-07-21T04:19:17.008Z,57.9
2018-07-21T04:29:16.242Z,57.9
2018-07-21T04:39:15.478Z,57.9
2018-07-21T04:49:14.713Z,57.9
2018-07-21T04:59:13.950Z,57.9
2018-07-21T05:09:13.193Z,57.8
2018-07-21T05:19:12.428Z,57.8
2018-07-21T05:29:11.657Z,57.8
2018-07-21T05:39:10.921Z,55.1
2018-07-21T05:49:10.130Z,55.1
2018-07-21T05:59:09.366Z,53.8
2018-07-21T06:09:08.603Z,39.2
2018-07-21T06:19:07.842Z,34.4
2018-07-21T06:29:07.080Z,35.4
2018-07-21T06:39:06.323Z,36.5
2018-07-21T06:49:05.556Z,37.9
2018-07-21T06:59:04.818Z,39.1
2018-07-21T07:09:04.039Z,40.5
2018-07-21T07:19:03.274Z,41.9
2018-07-21T07:29:02.515Z,43.4
2018-07-21T07:39:01.803Z,44.9
2018-07-21T07:49:00.991Z,46.3
2018-07-21T07:59:00.233Z,47
2018-07-21T08:08:59.465Z,47.3
2018-07-21T08:18:58.706Z,47.4
2018-07-21T08:28:57.998Z,48
2018-07-21T08:38:57.181Z,48.8
2018-07-21T08:48:56.423Z,49.8
2018-07-21T08:58:55.664Z,50.9
2018-07-21T09:08:54.901Z,52
2018-07-21T09:18:54.134Z,53
2018-07-21T09:28:53.374Z,53.9
2018-07-21T09:38:52.608Z,54.7
2018-07-21T09:48:51.850Z,55.4
2018-07-21T09:58:51.089Z,56
2018-07-21T10:08:50.327Z,56.6
2018-07-21T10:18:49.568Z,56.9
2018-07-21T10:28:48.814Z,57.4
2018-07-21T10:38:48.049Z,57.9
2018-07-21T10:48:47.296Z,58.4
2018-07-21T10:58:46.530Z,58.9
2018-07-21T11:08:45.769Z,59.4
2018-07-21T11:18:45.009Z,60
2018-07-21T11:28:44.254Z,60.6
2018-07-21T11:38:43.534Z,61.2
2018-07-21T11:48:42.723Z,61.7
2018-07-21T11:58:41.961Z,62.1
2018-07-21T12:08:41.200Z,62.4
2018-07-21T12:18:40.440Z,63
2018-07-21T12:28:39.677Z,63.6
2018-07-21T12:38:38.916Z,64.2
2018-07-21T12:48:38.162Z,64.8
2018-07-21T12:58:37.391Z,65.3
2018-07-21T13:08:36.628Z,65.9
2018-07-21T13:18:35.865Z,66.5
2018-07-21T13:28:35.102Z,67.1
2018-07-21T13:38:34.346Z,67.6
2018-07-21T13:48:33.587Z,68.1
2018-07-21T13:58:32.819Z,68.6
2018-07-21T14:08:32.064Z,68.9
2018-07-21T14:18:31.298Z,69.3
2018-07-21T14:28:30.537Z,69.6
2018-07-21T14:38:29.777Z,69.9
2018-07-21T14:48:29.018Z,70.3
2018-07-21T14:58:28.256Z,70.6
2018-07-21T15:08:27.502Z,70.8
2018-07-21T15:18:26.734Z,71.1
2018-07-21T15:28:25.972Z,71.3
2018-07-21T15:38:25.211Z,71.4
2018-07-21T15:48:24.451Z,71.6
2018-07-21T15:58:23.688Z,71.7
2018-07-21T16:08:22.945Z,71.8
2018-07-21T16:18:22.165Z,71.8
2018-07-21T16:28:21.404Z,71.8
2018-07-21T16:38:20.641Z,71.8
2018-07-21T16:48:19.879Z,71.6
2018-07-21T16:58:19.117Z,71.5
2018-07-21T17:08:18.415Z,71.4
2018-07-21T17:18:17.595Z,71.2
2018-07-21T17:28:16.836Z,70.7
2018-07-21T17:38:16.080Z,70.2
2018-07-21T17:48:15.317Z,69.3
2018-07-21T17:58:14.561Z,68.6
2018-07-21T18:08:13.803Z,67.6
2018-07-21T18:18:13.047Z,66.6
2018-07-21T18:28:12.285Z,65.9
2018-07-21T18:38:11.532Z,62.9
2018-07-21T18:48:10.775Z,60.3
2018-07-21T18:58:10.018Z,59.8
2018-07-21T19:08:09.251Z,59.3
2018-07-21T19:18:08.490Z,58.9
2018-07-21T19:28:07.739Z,58.1
2018-07-21T19:38:06.989Z,57
2018-07-21T19:48:06.218Z,56.4
2018-07-21T19:58:05.551Z,55.4
2018-07-21T20:08:04.701Z,55.3
2018-07-21T20:18:03.937Z,54.1
2018-07-21T20:28:03.177Z,53.9
2018-07-21T20:38:02.487Z,53.9
2018-07-21T20:48:01.658Z,53.9
2018-07-21T20:58:00.901Z,53.8
2018-07-21T21:08:00.139Z,53.7
2018-07-21T21:17:59.381Z,53.6
2018-07-21T21:27:58.621Z,53.6
2018-07-21T21:37:57.861Z,53.4
2018-07-21T21:47:57.122Z,53.4
2018-07-21T21:57:56.339Z,53.4
2018-07-21T22:07:55.581Z,53.3
2018-07-21T22:17:54.819Z,53.3
2018-07-21T22:27:54.057Z,53.2
2018-07-21T22:37:53.296Z,53.2
2018-07-21T22:47:52.542Z,53.1
2018-07-21T22:57:51.783Z,53.1
2018-07-21T23:07:51.013Z,53.1
2018-07-21T23:17:50.251Z,53.1
2018-07-21T23:27:49.490Z,53
2018-07-21T23:37:48.728Z,52.9
2018-07-21T23:47:47.968Z,51.8
2018-07-21T23:57:47.213Z,51.8
